sensor_id;sensor_type;location;lat;lon;timestamp;P1;durP1;ratioP1;P2;durP2;ratioP2
22829;SDS011;11581;51.250;6.778;2022-07-29T00:01:46;1.83;;;0.90;;
22829;SDS011;11581;51.250;6.778;2022-07-29T00:04:13;2.92;;;1.02;;
22829;SDS011;11581;51.250;6.778;2022-07-29T00:06:43;2.22;;;0.90;;
22829;SDS011;11581;51.250;6.778;2022-07-29T00:09:10;2.40;;;0.93;;
22829;SDS011;11581;51.250;6.778;2022-07-29T00:11:37;2.90;;;0.98;;
22829;SDS011;11581;51.250;6.778;2022-07-29T00:14:05;2.50;;;1.02;;
22829;SDS011;11581;51.250;6.778;2022-07-29T00:16:33;2.67;;;0.93;;
22829;SDS011;11581;51.250;6.778;2022-07-29T00:19:00;3.35;;;0.95;;
22829;SDS011;11581;51.250;6.778;2022-07-29T00:21:27;2.50;;;0.98;;
22829;SDS011;11581;51.250;6.778;2022-07-29T00:23:55;2.88;;;0.90;;
22829;SDS011;11581;51.250;6.778;2022-07-29T00:26:22;3.00;;;0.73;;
22829;SDS011;11581;51.250;6.778;2022-07-29T00:28:49;5.25;;;1.20;;
22829;SDS011;11581;51.250;6.778;2022-07-29T00:31:16;4.05;;;1.10;;
22829;SDS011;11581;51.250;6.778;2022-07-29T00:33:43;3.38;;;0.95;;
22829;SDS011;11581;51.250;6.778;2022-07-29T00:36:10;3.97;;;0.73;;
22829;SDS011;11581;51.250;6.778;2022-07-29T00:38:37;2.22;;;0.80;;
22829;SDS011;11581;51.250;6.778;2022-07-29T00:41:10;3.72;;;0.90;;
22829;SDS011;11581;51.250;6.778;2022-07-29T00:43:37;3.53;;;1.00;;
22829;SDS011;11581;51.250;6.778;2022-07-29T00:46:04;5.95;;;1.05;;
22829;SDS011;11581;51.250;6.778;2022-07-29T00:48:32;2.75;;;0.90;;
22829;SDS011;11581;51.250;6.778;2022-07-29T00:50:59;4.68;;;1.38;;
22829;SDS011;11581;51.250;6.778;2022-07-29T00:53:28;3.25;;;0.90;;
22829;SDS011;11581;51.250;6.778;2022-07-29T00:55:59;3.75;;;0.98;;
22829;SDS011;11581;51.250;6.778;2022-07-29T00:58:28;4.00;;;0.85;;
22829;SDS011;11581;51.250;6.778;2022-07-29T01:00:55;2.13;;;0.82;;
22829;SDS011;11581;51.250;6.778;2022-07-29T01:03:24;6.75;;;1.83;;
22829;SDS011;11581;51.250;6.778;2022-07-29T01:05:51;2.25;;;1.20;;
22829;SDS011;11581;51.250;6.778;2022-07-29T01:08:20;4.32;;;0.80;;
22829;SDS011;11581;51.250;6.778;2022-07-29T01:10:48;6.15;;;0.85;;
22829;SDS011;11581;51.250;6.778;2022-07-29T01:13:17;4.20;;;0.70;;
22829;SDS011;11581;51.250;6.778;2022-07-29T01:15:47;2.65;;;0.88;;
22829;SDS011;11581;51.250;6.778;2022-07-29T01:18:20;4.20;;;1.00;;
22829;SDS011;11581;51.250;6.778;2022-07-29T01:20:55;2.30;;;1.00;;
22829;SDS011;11581;51.250;6.778;2022-07-29T01:26:43;4.63;;;1.02;;
22829;SDS011;11581;51.250;6.778;2022-07-29T01:29:17;3.17;;;1.15;;
22829;SDS011;11581;51.250;6.778;2022-07-29T01:31:51;3.95;;;1.33;;
22829;SDS011;11581;51.250;6.778;2022-07-29T01:34:23;3.72;;;1.20;;
22829;SDS011;11581;51.250;6.778;2022-07-29T01:37:01;3.63;;;1.23;;
22829;SDS011;11581;51.250;6.778;2022-07-29T01:39:36;1.98;;;1.00;;
22829;SDS011;11581;51.250;6.778;2022-07-29T01:42:07;4.97;;;1.00;;
22829;SDS011;11581;51.250;6.778;2022-07-29T01:44:45;2.13;;;0.80;;
22829;SDS011;11581;51.250;6.778;2022-07-29T01:47:17;5.68;;;1.05;;
22829;SDS011;11581;51.250;6.778;2022-07-29T01:49:49;3.70;;;1.45;;
22829;SDS011;11581;51.250;6.778;2022-07-29T01:52:20;4.15;;;0.80;;
22829;SDS011;11581;51.250;6.778;2022-07-29T01:54:53;6.13;;;0.95;;
22829;SDS011;11581;51.250;6.778;2022-07-29T01:57:24;3.25;;;0.88;;
22829;SDS011;11581;51.250;6.778;2022-07-29T01:59:56;7.68;;;1.17;;
22829;SDS011;11581;51.250;6.778;2022-07-29T02:02:25;8.30;;;1.10;;
22829;SDS011;11581;51.250;6.778;2022-07-29T02:04:54;8.48;;;1.58;;
22829;SDS011;11581;51.250;6.778;2022-07-29T02:07:23;4.20;;;0.90;;
22829;SDS011;11581;51.250;6.778;2022-07-29T02:09:54;2.05;;;0.65;;
22829;SDS011;11581;51.250;6.778;2022-07-29T02:12:25;3.25;;;1.30;;
22829;SDS011;11581;51.250;6.778;2022-07-29T02:14:56;4.43;;;1.02;;
22829;SDS011;11581;51.250;6.778;2022-07-29T02:17:27;3.13;;;1.10;;
22829;SDS011;11581;51.250;6.778;2022-07-29T02:20:00;2.10;;;0.90;;
22829;SDS011;11581;51.250;6.778;2022-07-29T02:22:30;7.82;;;1.13;;
22829;SDS011;11581;51.250;6.778;2022-07-29T02:24:59;3.40;;;0.80;;
22829;SDS011;11581;51.250;6.778;2022-07-29T02:27:28;6.25;;;1.00;;
22829;SDS011;11581;51.250;6.778;2022-07-29T02:29:59;3.22;;;0.90;;
22829;SDS011;11581;51.250;6.778;2022-07-29T02:32:28;6.95;;;1.42;;
22829;SDS011;11581;51.250;6.778;2022-07-29T02:34:59;2.95;;;1.08;;
22829;SDS011;11581;51.250;6.778;2022-07-29T02:37:27;4.55;;;1.75;;
22829;SDS011;11581;51.250;6.778;2022-07-29T02:39:56;5.35;;;1.75;;
22829;SDS011;11581;51.250;6.778;2022-07-29T02:42:26;4.45;;;1.40;;
22829;SDS011;11581;51.250;6.778;2022-07-29T02:44:54;2.72;;;1.13;;
22829;SDS011;11581;51.250;6.778;2022-07-29T02:47:27;5.25;;;1.40;;
22829;SDS011;11581;51.250;6.778;2022-07-29T02:50:02;4.07;;;1.85;;
22829;SDS011;11581;51.250;6.778;2022-07-29T02:52:37;3.13;;;1.25;;
22829;SDS011;11581;51.250;6.778;2022-07-29T02:55:10;5.90;;;1.65;;
22829;SDS011;11581;51.250;6.778;2022-07-29T02:57:44;5.72;;;1.33;;
22829;SDS011;11581;51.250;6.778;2022-07-29T03:00:16;7.18;;;1.23;;
22829;SDS011;11581;51.250;6.778;2022-07-29T03:02:45;5.10;;;1.50;;
22829;SDS011;11581;51.250;6.778;2022-07-29T03:05:19;3.58;;;1.00;;
22829;SDS011;11581;51.250;6.778;2022-07-29T03:07:49;6.18;;;1.00;;
22829;SDS011;11581;51.250;6.778;2022-07-29T03:10:22;2.85;;;1.00;;
22829;SDS011;11581;51.250;6.778;2022-07-29T03:12:51;3.97;;;1.25;;
22829;SDS011;11581;51.250;6.778;2022-07-29T03:15:18;2.35;;;0.80;;
22829;SDS011;11581;51.250;6.778;2022-07-29T03:17:47;4.65;;;1.25;;
22829;SDS011;11581;51.250;6.778;2022-07-29T03:20:15;4.15;;;1.00;;
22829;SDS011;11581;51.250;6.778;2022-07-29T03:22:43;3.30;;;0.90;;
22829;SDS011;11581;51.250;6.778;2022-07-29T03:25:14;6.55;;;0.90;;
22829;SDS011;11581;51.250;6.778;2022-07-29T03:27:42;2.88;;;0.82;;
22829;SDS011;11581;51.250;6.778;2022-07-29T03:30:10;4.53;;;1.23;;
22829;SDS011;11581;51.250;6.778;2022-07-29T03:32:38;2.35;;;0.90;;
22829;SDS011;11581;51.250;6.778;2022-07-29T03:35:08;2.63;;;0.82;;
22829;SDS011;11581;51.250;6.778;2022-07-29T03:37:36;1.88;;;0.90;;
22829;SDS011;11581;51.250;6.778;2022-07-29T03:40:04;3.67;;;0.70;;
22829;SDS011;11581;51.250;6.778;2022-07-29T03:42:34;3.35;;;0.85;;
22829;SDS011;11581;51.250;6.778;2022-07-29T03:45:05;3.65;;;0.85;;
22829;SDS011;11581;51.250;6.778;2022-07-29T03:47:35;8.27;;;1.10;;
22829;SDS011;11581;51.250;6.778;2022-07-29T03:50:09;6.05;;;1.73;;
22829;SDS011;11581;51.250;6.778;2022-07-29T03:52:40;2.90;;;0.88;;
22829;SDS011;11581;51.250;6.778;2022-07-29T03:55:07;5.32;;;1.40;;
22829;SDS011;11581;51.250;6.778;2022-07-29T03:57:35;4.15;;;1.02;;
22829;SDS011;11581;51.250;6.778;2022-07-29T04:00:04;3.55;;;1.25;;
22829;SDS011;11581;51.250;6.778;2022-07-29T04:02:32;5.43;;;1.40;;
22829;SDS011;11581;51.250;6.778;2022-07-29T04:05:00;3.95;;;1.30;;
22829;SDS011;11581;51.250;6.778;2022-07-29T04:07:28;2.17;;;0.85;;
22829;SDS011;11581;51.250;6.778;2022-07-29T04:09:56;5.82;;;1.02;;
22829;SDS011;11581;51.250;6.778;2022-07-29T04:12:23;2.75;;;1.10;;
22829;SDS011;11581;51.250;6.778;2022-07-29T04:14:50;2.97;;;1.70;;
22829;SDS011;11581;51.250;6.778;2022-07-29T04:17:18;4.35;;;1.52;;
22829;SDS011;11581;51.250;6.778;2022-07-29T04:19:47;7.72;;;2.10;;
22829;SDS011;11581;51.250;6.778;2022-07-29T04:22:14;4.28;;;1.77;;
22829;SDS011;11581;51.250;6.778;2022-07-29T04:24:43;8.05;;;2.30;;
22829;SDS011;11581;51.250;6.778;2022-07-29T04:27:10;4.18;;;2.03;;
22829;SDS011;11581;51.250;6.778;2022-07-29T04:29:36;3.22;;;1.38;;
22829;SDS011;11581;51.250;6.778;2022-07-29T04:32:04;4.13;;;1.20;;
22829;SDS011;11581;51.250;6.778;2022-07-29T04:34:31;3.58;;;1.60;;
22829;SDS011;11581;51.250;6.778;2022-07-29T04:36:58;2.42;;;1.05;;
22829;SDS011;11581;51.250;6.778;2022-07-29T04:39:25;5.85;;;0.98;;
22829;SDS011;11581;51.250;6.778;2022-07-29T04:41:53;2.08;;;0.93;;
22829;SDS011;11581;51.250;6.778;2022-07-29T04:44:20;2.90;;;1.05;;
22829;SDS011;11581;51.250;6.778;2022-07-29T04:46:49;4.35;;;1.15;;
22829;SDS011;11581;51.250;6.778;2022-07-29T04:49:16;4.18;;;1.15;;
22829;SDS011;11581;51.250;6.778;2022-07-29T04:51:43;2.83;;;1.17;;
22829;SDS011;11581;51.250;6.778;2022-07-29T04:54:10;4.85;;;1.35;;
22829;SDS011;11581;51.250;6.778;2022-07-29T04:56:37;3.30;;;0.98;;
22829;SDS011;11581;51.250;6.778;2022-07-29T04:59:06;4.15;;;1.05;;
22829;SDS011;11581;51.250;6.778;2022-07-29T05:01:34;3.58;;;1.30;;
22829;SDS011;11581;51.250;6.778;2022-07-29T05:04:01;3.38;;;1.10;;
22829;SDS011;11581;51.250;6.778;2022-07-29T05:06:31;3.25;;;1.00;;
22829;SDS011;11581;51.250;6.778;2022-07-29T05:09:00;3.63;;;1.42;;
22829;SDS011;11581;51.250;6.778;2022-07-29T05:11:29;3.80;;;1.33;;
22829;SDS011;11581;51.250;6.778;2022-07-29T05:13:56;4.75;;;1.50;;
22829;SDS011;11581;51.250;6.778;2022-07-29T05:16:24;4.30;;;1.40;;
22829;SDS011;11581;51.250;6.778;2022-07-29T05:18:55;3.15;;;1.50;;
22829;SDS011;11581;51.250;6.778;2022-07-29T05:21:22;4.32;;;1.60;;
22829;SDS011;11581;51.250;6.778;2022-07-29T05:23:49;3.17;;;1.42;;
22829;SDS011;11581;51.250;6.778;2022-07-29T05:26:16;4.55;;;1.33;;
22829;SDS011;11581;51.250;6.778;2022-07-29T05:28:43;4.57;;;1.63;;
22829;SDS011;11581;51.250;6.778;2022-07-29T05:31:10;6.15;;;1.52;;
22829;SDS011;11581;51.250;6.778;2022-07-29T05:33:40;4.72;;;1.50;;
22829;SDS011;11581;51.250;6.778;2022-07-29T05:36:08;3.75;;;1.50;;
22829;SDS011;11581;51.250;6.778;2022-07-29T05:38:37;5.25;;;1.80;;
22829;SDS011;11581;51.250;6.778;2022-07-29T05:41:05;5.18;;;1.67;;
22829;SDS011;11581;51.250;6.778;2022-07-29T05:43:33;2.92;;;1.30;;
22829;SDS011;11581;51.250;6.778;2022-07-29T05:45:59;6.35;;;1.80;;
22829;SDS011;11581;51.250;6.778;2022-07-29T05:48:26;4.50;;;1.40;;
22829;SDS011;11581;51.250;6.778;2022-07-29T05:50:55;3.60;;;1.15;;
22829;SDS011;11581;51.250;6.778;2022-07-29T05:53:22;5.43;;;1.65;;
22829;SDS011;11581;51.250;6.778;2022-07-29T05:55:49;8.80;;;2.22;;
22829;SDS011;11581;51.250;6.778;2022-07-29T05:58:17;2.15;;;1.08;;
22829;SDS011;11581;51.250;6.778;2022-07-29T06:00:45;3.60;;;1.30;;
22829;SDS011;11581;51.250;6.778;2022-07-29T06:03:12;3.47;;;1.08;;
22829;SDS011;11581;51.250;6.778;2022-07-29T06:05:40;4.85;;;1.40;;
22829;SDS011;11581;51.250;6.778;2022-07-29T06:08:08;3.22;;;1.17;;
22829;SDS011;11581;51.250;6.778;2022-07-29T06:10:35;3.35;;;1.30;;
22829;SDS011;11581;51.250;6.778;2022-07-29T06:13:03;4.95;;;1.30;;
22829;SDS011;11581;51.250;6.778;2022-07-29T06:15:30;3.63;;;1.10;;
22829;SDS011;11581;51.250;6.778;2022-07-29T06:17:59;8.20;;;1.02;;
22829;SDS011;11581;51.250;6.778;2022-07-29T06:20:26;7.10;;;1.33;;
22829;SDS011;11581;51.250;6.778;2022-07-29T06:22:54;3.85;;;1.33;;
22829;SDS011;11581;51.250;6.778;2022-07-29T06:25:23;3.80;;;1.10;;
22829;SDS011;11581;51.250;6.778;2022-07-29T06:27:50;5.22;;;1.58;;
22829;SDS011;11581;51.250;6.778;2022-07-29T06:30:17;7.00;;;1.58;;
22829;SDS011;11581;51.250;6.778;2022-07-29T06:32:45;3.70;;;1.35;;
22829;SDS011;11581;51.250;6.778;2022-07-29T06:35:12;3.83;;;1.10;;
22829;SDS011;11581;51.250;6.778;2022-07-29T06:37:40;4.10;;;1.40;;
22829;SDS011;11581;51.250;6.778;2022-07-29T06:40:07;5.80;;;1.40;;
22829;SDS011;11581;51.250;6.778;2022-07-29T06:42:54;3.40;;;1.30;;
22829;SDS011;11581;51.250;6.778;2022-07-29T06:45:21;2.50;;;1.20;;
22829;SDS011;11581;51.250;6.778;2022-07-29T06:47:50;4.45;;;1.35;;
22829;SDS011;11581;51.250;6.778;2022-07-29T06:50:19;4.43;;;1.20;;
22829;SDS011;11581;51.250;6.778;2022-07-29T06:52:48;5.63;;;1.92;;
22829;SDS011;11581;51.250;6.778;2022-07-29T06:55:16;7.32;;;1.20;;
22829;SDS011;11581;51.250;6.778;2022-07-29T06:57:44;4.53;;;1.02;;
22829;SDS011;11581;51.250;6.778;2022-07-29T07:00:14;4.60;;;1.33;;
22829;SDS011;11581;51.250;6.778;2022-07-29T07:02:43;2.38;;;1.00;;
22829;SDS011;11581;51.250;6.778;2022-07-29T07:05:10;4.75;;;1.60;;
22829;SDS011;11581;51.250;6.778;2022-07-29T07:07:37;3.05;;;1.20;;
22829;SDS011;11581;51.250;6.778;2022-07-29T07:10:05;6.43;;;1.75;;
22829;SDS011;11581;51.250;6.778;2022-07-29T07:12:32;5.55;;;1.63;;
22829;SDS011;11581;51.250;6.778;2022-07-29T07:14:59;3.60;;;1.42;;
22829;SDS011;11581;51.250;6.778;2022-07-29T07:17:28;5.55;;;1.17;;
22829;SDS011;11581;51.250;6.778;2022-07-29T07:19:55;3.72;;;1.35;;
22829;SDS011;11581;51.250;6.778;2022-07-29T07:22:22;5.72;;;1.95;;
22829;SDS011;11581;51.250;6.778;2022-07-29T07:24:49;3.28;;;1.98;;
22829;SDS011;11581;51.250;6.778;2022-07-29T07:27:17;4.00;;;1.23;;
22829;SDS011;11581;51.250;6.778;2022-07-29T07:29:44;4.65;;;1.55;;
22829;SDS011;11581;51.250;6.778;2022-07-29T07:32:11;4.03;;;1.33;;
22829;SDS011;11581;51.250;6.778;2022-07-29T07:34:42;5.32;;;1.20;;
22829;SDS011;11581;51.250;6.778;2022-07-29T07:37:10;3.63;;;1.48;;
22829;SDS011;11581;51.250;6.778;2022-07-29T07:39:39;3.28;;;1.17;;
22829;SDS011;11581;51.250;6.778;2022-07-29T07:42:06;3.28;;;1.25;;
22829;SDS011;11581;51.250;6.778;2022-07-29T07:44:35;6.20;;;1.40;;
22829;SDS011;11581;51.250;6.778;2022-07-29T07:47:03;3.15;;;1.33;;
22829;SDS011;11581;51.250;6.778;2022-07-29T07:49:30;6.45;;;1.58;;
22829;SDS011;11581;51.250;6.778;2022-07-29T07:51:59;6.30;;;1.85;;
22829;SDS011;11581;51.250;6.778;2022-07-29T07:54:26;7.10;;;1.60;;
22829;SDS011;11581;51.250;6.778;2022-07-29T07:56:54;3.78;;;2.20;;
22829;SDS011;11581;51.250;6.778;2022-07-29T07:59:21;2.80;;;1.50;;
22829;SDS011;11581;51.250;6.778;2022-07-29T08:01:48;4.22;;;1.70;;
22829;SDS011;11581;51.250;6.778;2022-07-29T08:04:15;4.85;;;1.95;;
22829;SDS011;11581;51.250;6.778;2022-07-29T08:06:42;7.07;;;1.95;;
22829;SDS011;11581;51.250;6.778;2022-07-29T08:09:11;12.27;;;1.70;;
22829;SDS011;11581;51.250;6.778;2022-07-29T08:11:38;4.05;;;1.90;;
22829;SDS011;11581;51.250;6.778;2022-07-29T08:14:05;5.80;;;1.70;;
22829;SDS011;11581;51.250;6.778;2022-07-29T08:16:33;5.88;;;2.22;;
22829;SDS011;11581;51.250;6.778;2022-07-29T08:18:59;5.85;;;2.15;;
22829;SDS011;11581;51.250;6.778;2022-07-29T08:21:29;4.53;;;1.63;;
22829;SDS011;11581;51.250;6.778;2022-07-29T08:23:56;3.33;;;1.60;;
22829;SDS011;11581;51.250;6.778;2022-07-29T08:26:39;4.82;;;1.45;;
22829;SDS011;11581;51.250;6.778;2022-07-29T08:29:06;4.82;;;1.90;;
22829;SDS011;11581;51.250;6.778;2022-07-29T08:31:33;2.60;;;1.40;;
22829;SDS011;11581;51.250;6.778;2022-07-29T08:34:01;3.30;;;1.60;;
22829;SDS011;11581;51.250;6.778;2022-07-29T08:36:29;5.35;;;1.55;;
22829;SDS011;11581;51.250;6.778;2022-07-29T08:38:56;4.18;;;1.50;;
22829;SDS011;11581;51.250;6.778;2022-07-29T08:41:24;5.95;;;1.75;;
22829;SDS011;11581;51.250;6.778;2022-07-29T08:43:54;4.03;;;1.55;;
22829;SDS011;11581;51.250;6.778;2022-07-29T08:46:22;4.25;;;2.05;;
22829;SDS011;11581;51.250;6.778;2022-07-29T08:48:50;4.30;;;1.50;;
22829;SDS011;11581;51.250;6.778;2022-07-29T08:51:17;6.10;;;2.40;;
22829;SDS011;11581;51.250;6.778;2022-07-29T08:53:47;5.88;;;1.90;;
22829;SDS011;11581;51.250;6.778;2022-07-29T08:56:17;3.30;;;1.30;;
22829;SDS011;11581;51.250;6.778;2022-07-29T08:58:48;3.15;;;1.65;;
22829;SDS011;11581;51.250;6.778;2022-07-29T09:01:20;8.55;;;2.08;;
22829;SDS011;11581;51.250;6.778;2022-07-29T09:03:49;3.75;;;1.40;;
22829;SDS011;11581;51.250;6.778;2022-07-29T09:06:18;5.68;;;1.60;;
22829;SDS011;11581;51.250;6.778;2022-07-29T09:08:47;3.83;;;1.63;;
22829;SDS011;11581;51.250;6.778;2022-07-29T09:11:16;5.07;;;2.08;;
22829;SDS011;11581;51.250;6.778;2022-07-29T09:13:45;6.38;;;2.10;;
22829;SDS011;11581;51.250;6.778;2022-07-29T09:16:14;5.88;;;1.95;;
22829;SDS011;11581;51.250;6.778;2022-07-29T09:18:44;10.48;;;2.58;;
22829;SDS011;11581;51.250;6.778;2022-07-29T09:21:13;4.72;;;2.00;;
22829;SDS011;11581;51.250;6.778;2022-07-29T09:24:01;4.30;;;2.10;;
22829;SDS011;11581;51.250;6.778;2022-07-29T09:26:32;4.28;;;1.60;;
22829;SDS011;11581;51.250;6.778;2022-07-29T09:29:06;4.95;;;1.80;;
22829;SDS011;11581;51.250;6.778;2022-07-29T09:31:36;5.57;;;1.80;;
22829;SDS011;11581;51.250;6.778;2022-07-29T09:34:06;3.90;;;1.45;;
22829;SDS011;11581;51.250;6.778;2022-07-29T09:36:40;5.72;;;1.70;;
22829;SDS011;11581;51.250;6.778;2022-07-29T09:39:09;8.75;;;2.28;;
22829;SDS011;11581;51.250;6.778;2022-07-29T09:41:45;5.38;;;1.92;;
22829;SDS011;11581;51.250;6.778;2022-07-29T09:44:14;4.30;;;1.67;;
22829;SDS011;11581;51.250;6.778;2022-07-29T09:46:52;3.65;;;1.60;;
22829;SDS011;11581;51.250;6.778;2022-07-29T09:49:33;4.30;;;1.55;;
22829;SDS011;11581;51.250;6.778;2022-07-29T09:52:06;4.00;;;1.73;;
22829;SDS011;11581;51.250;6.778;2022-07-29T09:54:36;5.35;;;1.85;;
22829;SDS011;11581;51.250;6.778;2022-07-29T09:57:05;6.45;;;1.85;;
22829;SDS011;11581;51.250;6.778;2022-07-29T09:59:34;3.67;;;1.60;;
22829;SDS011;11581;51.250;6.778;2022-07-29T10:02:10;4.65;;;1.70;;
22829;SDS011;11581;51.250;6.778;2022-07-29T10:04:41;4.38;;;1.70;;
22829;SDS011;11581;51.250;6.778;2022-07-29T10:07:08;5.25;;;1.48;;
22829;SDS011;11581;51.250;6.778;2022-07-29T10:09:37;3.30;;;1.50;;
22829;SDS011;11581;51.250;6.778;2022-07-29T10:12:05;2.63;;;1.30;;
22829;SDS011;11581;51.250;6.778;2022-07-29T10:14:34;5.28;;;1.92;;
22829;SDS011;11581;51.250;6.778;2022-07-29T10:17:03;7.78;;;1.90;;
22829;SDS011;11581;51.250;6.778;2022-07-29T10:19:34;5.00;;;1.60;;
22829;SDS011;11581;51.250;6.778;2022-07-29T10:22:04;4.32;;;1.80;;
22829;SDS011;11581;51.250;6.778;2022-07-29T10:24:33;4.45;;;1.38;;
22829;SDS011;11581;51.250;6.778;2022-07-29T10:27:04;4.40;;;1.42;;
22829;SDS011;11581;51.250;6.778;2022-07-29T10:29:32;4.15;;;1.90;;
22829;SDS011;11581;51.250;6.778;2022-07-29T10:32:06;4.40;;;1.30;;
22829;SDS011;11581;51.250;6.778;2022-07-29T10:34:44;5.18;;;1.33;;
22829;SDS011;11581;51.250;6.778;2022-07-29T10:37:27;8.07;;;1.55;;
22829;SDS011;11581;51.250;6.778;2022-07-29T10:40:00;4.22;;;1.13;;
22829;SDS011;11581;51.250;6.778;2022-07-29T10:42:51;4.05;;;1.20;;
22829;SDS011;11581;51.250;6.778;2022-07-29T10:45:20;4.85;;;1.60;;
22829;SDS011;11581;51.250;6.778;2022-07-29T10:47:49;2.88;;;1.33;;
22829;SDS011;11581;51.250;6.778;2022-07-29T10:53:21;5.55;;;1.88;;
22829;SDS011;11581;51.250;6.778;2022-07-29T10:55:50;4.85;;;1.60;;
22829;SDS011;11581;51.250;6.778;2022-07-29T10:58:19;2.20;;;1.20;;
22829;SDS011;11581;51.250;6.778;2022-07-29T11:00:48;4.07;;;1.30;;
22829;SDS011;11581;51.250;6.778;2022-07-29T11:06:13;9.75;;;1.48;;
22829;SDS011;11581;51.250;6.778;2022-07-29T11:08:42;4.28;;;1.20;;
22829;SDS011;11581;51.250;6.778;2022-07-29T11:13:58;3.83;;;1.00;;
22829;SDS011;11581;51.250;6.778;2022-07-29T11:16:57;3.65;;;1.20;;
22829;SDS011;11581;51.250;6.778;2022-07-29T11:19:28;2.85;;;1.17;;
22829;SDS011;11581;51.250;6.778;2022-07-29T11:21:56;2.53;;;1.20;;
22829;SDS011;11581;51.250;6.778;2022-07-29T11:24:26;3.05;;;0.88;;
22829;SDS011;11581;51.250;6.778;2022-07-29T11:27:06;4.15;;;1.42;;
22829;SDS011;11581;51.250;6.778;2022-07-29T11:29:41;3.92;;;1.00;;
22829;SDS011;11581;51.250;6.778;2022-07-29T11:32:15;5.20;;;1.48;;
22829;SDS011;11581;51.250;6.778;2022-07-29T11:34:45;3.63;;;1.00;;
22829;SDS011;11581;51.250;6.778;2022-07-29T11:37:17;3.25;;;1.25;;
22829;SDS011;11581;51.250;6.778;2022-07-29T11:42:41;4.00;;;1.15;;
22829;SDS011;11581;51.250;6.778;2022-07-29T11:45:22;3.05;;;1.00;;
22829;SDS011;11581;51.250;6.778;2022-07-29T11:47:58;3.35;;;1.02;;
22829;SDS011;11581;51.250;6.778;2022-07-29T11:50:27;3.78;;;1.33;;
22829;SDS011;11581;51.250;6.778;2022-07-29T11:52:57;3.25;;;1.48;;
22829;SDS011;11581;51.250;6.778;2022-07-29T11:55:30;6.55;;;2.40;;
22829;SDS011;11581;51.250;6.778;2022-07-29T11:58:01;6.28;;;2.17;;
22829;SDS011;11581;51.250;6.778;2022-07-29T12:00:30;7.85;;;2.47;;
22829;SDS011;11581;51.250;6.778;2022-07-29T12:03:00;6.75;;;2.30;;
22829;SDS011;11581;51.250;6.778;2022-07-29T12:05:36;16.73;;;2.35;;
22829;SDS011;11581;51.250;6.778;2022-07-29T12:08:14;4.03;;;1.67;;
22829;SDS011;11581;51.250;6.778;2022-07-29T12:10:45;10.57;;;2.50;;
22829;SDS011;11581;51.250;6.778;2022-07-29T12:13:18;4.37;;;1.43;;
22829;SDS011;11581;51.250;6.778;2022-07-29T12:15:51;6.20;;;1.95;;
22829;SDS011;11581;51.250;6.778;2022-07-29T12:18:19;10.77;;;2.10;;
22829;SDS011;11581;51.250;6.778;2022-07-29T12:20:48;5.45;;;2.10;;
22829;SDS011;11581;51.250;6.778;2022-07-29T12:23:22;6.75;;;2.22;;
22829;SDS011;11581;51.250;6.778;2022-07-29T12:25:51;4.25;;;1.80;;
22829;SDS011;11581;51.250;6.778;2022-07-29T12:28:18;5.05;;;2.08;;
22829;SDS011;11581;51.250;6.778;2022-07-29T12:30:47;6.28;;;1.95;;
22829;SDS011;11581;51.250;6.778;2022-07-29T12:33:17;10.65;;;2.45;;
22829;SDS011;11581;51.250;6.778;2022-07-29T12:35:46;7.10;;;2.38;;
22829;SDS011;11581;51.250;6.778;2022-07-29T12:38:16;12.80;;;2.97;;
22829;SDS011;11581;51.250;6.778;2022-07-29T12:40:44;11.70;;;3.05;;
22829;SDS011;11581;51.250;6.778;2022-07-29T12:43:14;4.97;;;2.60;;
22829;SDS011;11581;51.250;6.778;2022-07-29T12:45:44;6.38;;;2.40;;
22829;SDS011;11581;51.250;6.778;2022-07-29T12:48:12;5.88;;;2.20;;
22829;SDS011;11581;51.250;6.778;2022-07-29T12:50:53;7.57;;;2.33;;
22829;SDS011;11581;51.250;6.778;2022-07-29T12:53:22;9.73;;;2.35;;
22829;SDS011;11581;51.250;6.778;2022-07-29T12:55:50;3.60;;;1.30;;
22829;SDS011;11581;51.250;6.778;2022-07-29T12:58:30;5.38;;;1.77;;
22829;SDS011;11581;51.250;6.778;2022-07-29T13:01:03;4.47;;;1.95;;
22829;SDS011;11581;51.250;6.778;2022-07-29T13:03:42;7.88;;;2.00;;
22829;SDS011;11581;51.250;6.778;2022-07-29T13:09:02;6.88;;;1.90;;
22829;SDS011;11581;51.250;6.778;2022-07-29T13:11:31;7.32;;;1.58;;
22829;SDS011;11581;51.250;6.778;2022-07-29T13:14:00;5.35;;;1.55;;
22829;SDS011;11581;51.250;6.778;2022-07-29T13:16:28;5.97;;;1.75;;
22829;SDS011;11581;51.250;6.778;2022-07-29T13:19:05;5.88;;;1.75;;
22829;SDS011;11581;51.250;6.778;2022-07-29T13:21:34;3.13;;;1.50;;
22829;SDS011;11581;51.250;6.778;2022-07-29T13:24:02;3.30;;;1.52;;
22829;SDS011;11581;51.250;6.778;2022-07-29T13:26:29;5.43;;;1.50;;
22829;SDS011;11581;51.250;6.778;2022-07-29T13:28:58;6.47;;;1.83;;
22829;SDS011;11581;51.250;6.778;2022-07-29T13:31:27;4.85;;;1.73;;
22829;SDS011;11581;51.250;6.778;2022-07-29T13:33:55;4.25;;;1.80;;
22829;SDS011;11581;51.250;6.778;2022-07-29T13:36:22;7.80;;;1.80;;
22829;SDS011;11581;51.250;6.778;2022-07-29T13:38:50;4.13;;;1.55;;
22829;SDS011;11581;51.250;6.778;2022-07-29T13:41:22;4.40;;;1.98;;
22829;SDS011;11581;51.250;6.778;2022-07-29T13:43:50;6.97;;;2.38;;
22829;SDS011;11581;51.250;6.778;2022-07-29T13:46:18;5.18;;;2.30;;
22829;SDS011;11581;51.250;6.778;2022-07-29T13:48:47;6.95;;;2.10;;
22829;SDS011;11581;51.250;6.778;2022-07-29T13:51:14;9.20;;;2.75;;
22829;SDS011;11581;51.250;6.778;2022-07-29T13:53:46;6.45;;;2.45;;
22829;SDS011;11581;51.250;6.778;2022-07-29T13:56:13;6.47;;;2.28;;
22829;SDS011;11581;51.250;6.778;2022-07-29T13:58:40;7.93;;;1.65;;
22829;SDS011;11581;51.250;6.778;2022-07-29T14:01:07;5.25;;;1.70;;
22829;SDS011;11581;51.250;6.778;2022-07-29T14:03:34;4.50;;;1.40;;
22829;SDS011;11581;51.250;6.778;2022-07-29T14:06:07;5.35;;;2.08;;
22829;SDS011;11581;51.250;6.778;2022-07-29T14:08:34;5.97;;;1.45;;
22829;SDS011;11581;51.250;6.778;2022-07-29T14:11:02;3.15;;;1.27;;
22829;SDS011;11581;51.250;6.778;2022-07-29T14:13:29;3.35;;;1.50;;
22829;SDS011;11581;51.250;6.778;2022-07-29T14:15:56;3.70;;;1.85;;
22829;SDS011;11581;51.250;6.778;2022-07-29T14:18:23;6.50;;;2.40;;
22829;SDS011;11581;51.250;6.778;2022-07-29T14:20:51;7.47;;;2.42;;
22829;SDS011;11581;51.250;6.778;2022-07-29T14:23:21;6.05;;;2.97;;
22829;SDS011;11581;51.250;6.778;2022-07-29T14:25:48;5.70;;;2.55;;
22829;SDS011;11581;51.250;6.778;2022-07-29T14:28:15;5.95;;;2.47;;
22829;SDS011;11581;51.250;6.778;2022-07-29T14:30:42;6.43;;;2.60;;
22829;SDS011;11581;51.250;6.778;2022-07-29T14:33:10;12.38;;;2.63;;
22829;SDS011;11581;51.250;6.778;2022-07-29T14:35:37;6.60;;;2.17;;
22829;SDS011;11581;51.250;6.778;2022-07-29T14:38:04;5.90;;;1.90;;
22829;SDS011;11581;51.250;6.778;2022-07-29T14:40:33;4.78;;;1.63;;
22829;SDS011;11581;51.250;6.778;2022-07-29T14:43:01;5.95;;;2.03;;
22829;SDS011;11581;51.250;6.778;2022-07-29T14:45:28;11.00;;;2.30;;
22829;SDS011;11581;51.250;6.778;2022-07-29T14:47:56;8.05;;;2.17;;
22829;SDS011;11581;51.250;6.778;2022-07-29T14:50:25;6.22;;;2.13;;
22829;SDS011;11581;51.250;6.778;2022-07-29T14:52:52;5.25;;;2.53;;
22829;SDS011;11581;51.250;6.778;2022-07-29T14:55:20;6.43;;;2.30;;
22829;SDS011;11581;51.250;6.778;2022-07-29T14:57:49;8.52;;;2.50;;
22829;SDS011;11581;51.250;6.778;2022-07-29T15:00:17;6.57;;;3.10;;
22829;SDS011;11581;51.250;6.778;2022-07-29T15:02:45;7.68;;;2.38;;
22829;SDS011;11581;51.250;6.778;2022-07-29T15:05:15;9.93;;;3.45;;
22829;SDS011;11581;51.250;6.778;2022-07-29T15:07:42;7.95;;;2.63;;
22829;SDS011;11581;51.250;6.778;2022-07-29T15:10:09;7.85;;;2.55;;
22829;SDS011;11581;51.250;6.778;2022-07-29T15:12:37;8.82;;;2.60;;
22829;SDS011;11581;51.250;6.778;2022-07-29T15:15:09;7.32;;;2.35;;
22829;SDS011;11581;51.250;6.778;2022-07-29T15:17:36;10.75;;;1.88;;
22829;SDS011;11581;51.250;6.778;2022-07-29T15:20:03;5.07;;;1.70;;